createdAt,value
2017-01-29T00:00:12.142Z,1000.4
2017-01-29T00:00:33.436Z,1000.4
2017-01-29T00:00:54.888Z,1000.4
2017-01-29T00:01:16.292Z,1000.4
2017-01-29T00:01:37.869Z,1000.4
2017-01-29T00:01:59.717Z,1000.4
2017-01-29T00:02:22.069Z,1000.4
2017-01-29T00:02:43.864Z,1000.4
2017-01-29T00:03:06.112Z,1000.5
2017-01-29T00:03:28.255Z,1000.4
2017-01-29T00:03:50.244Z,1000.4
2017-01-29T00:04:12.015Z,1000.4
2017-01-29T00:04:34.211Z,1000.4
2017-01-29T00:04:55.599Z,1000.4
2017-01-29T00:05:17.082Z,1000.4
2017-01-29T00:05:40.459Z,1000.4
2017-01-29T00:06:01.970Z,1000.4
2017-01-29T00:06:23.337Z,1000.4
2017-01-29T00:06:44.923Z,1000.4
2017-01-29T00:07:06.325Z,1000.4
2017-01-29T00:07:28.328Z,1000.4
2017-01-29T00:07:50.269Z,1000.4
2017-01-29T00:08:12.964Z,1000.4
2017-01-29T00:08:35.538Z,1000.4
2017-01-29T00:08:57.622Z,1000.4
2017-01-29T00:09:19.460Z,1000.4
2017-01-29T00:09:40.774Z,1000.4
2017-01-29T00:10:02.289Z,1000.4
2017-01-29T00:10:24.193Z,1000.4
2017-01-29T00:10:45.647Z,1000.4
2017-01-29T00:11:06.948Z,1000.4
2017-01-29T00:11:28.241Z,1000.4
2017-01-29T00:11:50.216Z,1000.4
2017-01-29T00:12:11.503Z,1000.4
2017-01-29T00:12:33.734Z,1000.4
2017-01-29T00:12:58.197Z,1000.4
2017-01-29T00:13:20.068Z,1000.4
2017-01-29T00:13:41.351Z,1000.4
2017-01-29T00:14:02.833Z,1000.5
2017-01-29T00:14:24.121Z,1000.4
2017-01-29T00:14:45.500Z,1000.4
2017-01-29T00:15:06.823Z,1000.4
2017-01-29T00:15:28.129Z,1000.4
2017-01-29T00:15:49.895Z,1000.4
2017-01-29T00:16:12.398Z,1000.4
2017-01-29T00:16:34.432Z,1000.4
2017-01-29T00:16:56.659Z,1000.4
2017-01-29T00:17:19.047Z,1000.4
2017-01-29T00:17:41.442Z,1000.4
2017-01-29T00:18:03.251Z,1000.4
2017-01-29T00:18:24.708Z,1000.4
2017-01-29T00:18:47.370Z,1000.4
2017-01-29T00:19:09.644Z,1000.3
2017-01-29T00:19:30.979Z,1000.4
2017-01-29T00:19:53.026Z,1000.4
2017-01-29T00:20:14.493Z,1000.4
2017-01-29T00:20:37.073Z,1000.4
2017-01-29T00:20:58.722Z,1000.4
2017-01-29T00:21:20.572Z,1000.4
2017-01-29T00:21:42.295Z,1000.4
2017-01-29T00:22:03.609Z,1000.4
2017-01-29T00:22:24.939Z,1000.4
2017-01-29T00:22:46.258Z,1000.4
2017-01-29T00:23:07.559Z,1000.4
2017-01-29T00:23:28.856Z,1000.4
2017-01-29T00:23:51.745Z,1000.4
2017-01-29T00:24:16.148Z,1000.4
2017-01-29T00:24:38.367Z,1000.4
2017-01-29T00:25:00.190Z,1000.4
2017-01-29T00:25:22.118Z,1000.4
2017-01-29T00:26:37.661Z,1000.4
2017-01-29T00:27:00.007Z,1000.4
2017-01-29T00:27:21.952Z,1000.4
2017-01-29T00:27:43.496Z,1000.4
2017-01-29T00:28:04.817Z,1000.4
2017-01-29T00:28:26.265Z,1000.4
2017-01-29T00:28:47.987Z,1000.5
2017-01-29T00:29:09.783Z,1000.5
2017-01-29T00:29:31.519Z,1000.4
2017-01-29T00:29:53.250Z,1000.5
2017-01-29T00:30:15.794Z,1000.5
2017-01-29T00:30:39.073Z,1000.5
2017-01-29T00:31:00.837Z,1000.4
2017-01-29T00:31:22.849Z,1000.4
2017-01-29T00:31:45.068Z,1000.4
2017-01-29T00:32:07.231Z,1000.4
2017-01-29T00:32:32.870Z,1000.4
2017-01-29T00:32:57.404Z,1000.4
2017-01-29T00:33:19.430Z,1000.4
2017-01-29T00:33:41.279Z,1000.4
2017-01-29T00:34:03.228Z,1000.4
2017-01-29T00:34:25.258Z,1000.4
2017-01-29T00:34:47.253Z,1000.3
2017-01-29T00:35:09.452Z,1000.4
2017-01-29T00:35:30.991Z,1000.4
2017-01-29T00:35:52.507Z,1000.4
2017-01-29T00:36:15.218Z,1000.4
2017-01-29T00:36:37.548Z,1000.4
2017-01-29T00:36:59.503Z,1000.4
2017-01-29T00:37:21.874Z,1000.4
2017-01-29T00:37:44.188Z,1000.4
2017-01-29T00:38:06.074Z,1000.4
2017-01-29T00:38:27.758Z,1000.4
2017-01-29T00:38:49.993Z,1000.4
2017-01-29T00:39:12.267Z,1000.4
2017-01-29T00:39:34.867Z,1000.4
2017-01-29T00:39:57.511Z,1000.4
2017-01-29T00:40:19.424Z,1000.3
2017-01-29T00:40:41.831Z,1000.4
2017-01-29T00:41:04.483Z,1000.4
2017-01-29T00:41:26.937Z,1000.4
2017-01-29T00:41:48.224Z,1000.3
2017-01-29T00:42:09.517Z,1000.3
2017-01-29T00:42:30.816Z,1000.4
2017-01-29T00:42:52.130Z,1000.4
2017-01-29T00:43:13.421Z,1000.4
2017-01-29T00:43:35.269Z,1000.4
2017-01-29T00:43:59.148Z,1000.4
2017-01-29T00:44:23.358Z,1000.4
2017-01-29T00:44:46.935Z,1000.4
2017-01-29T00:45:08.955Z,1000.4
2017-01-29T00:45:30.569Z,1000.4
2017-01-29T00:45:53.144Z,1000.4
2017-01-29T00:46:16.577Z,1000.4
2017-01-29T00:46:50.615Z,1000.4
2017-01-29T00:47:12.638Z,1000.4
2017-01-29T00:47:34.843Z,1000.4
2017-01-29T00:47:56.988Z,1000.3
2017-01-29T00:48:20.045Z,1000.4
2017-01-29T00:48:41.908Z,1000.4
2017-01-29T00:49:05.628Z,1000.4
2017-01-29T00:49:28.086Z,1000.4
2017-01-29T00:49:55.656Z,1000.4
2017-01-29T00:50:17.384Z,1000.4
2017-01-29T00:50:40.094Z,1000.4
2017-01-29T00:51:02.846Z,1000.4
2017-01-29T00:51:27.182Z,1000.4
2017-01-29T00:51:51.641Z,1000.4
2017-01-29T00:52:17.212Z,1000.4
2017-01-29T00:52:41.568Z,1000.4
2017-01-29T00:53:06.147Z,1000.4
2017-01-29T00:53:27.449Z,1000.4
2017-01-29T00:53:48.735Z,1000.4
2017-01-29T00:54:10.046Z,1000.3
2017-01-29T00:54:31.742Z,1000.4
2017-01-29T00:54:54.729Z,1000.3
2017-01-29T00:55:16.050Z,1000.4
2017-01-29T00:55:37.374Z,1000.4
2017-01-29T00:55:59.191Z,1000.4
2017-01-29T00:56:20.635Z,1000.4
2017-01-29T00:56:42.029Z,1000.4
2017-01-29T00:57:03.744Z,1000.4
2017-01-29T00:57:26.953Z,1000.4
2017-01-29T00:57:49.300Z,1000.4
2017-01-29T00:58:11.982Z,1000.4
2017-01-29T00:58:34.409Z,1000.4
2017-01-29T00:58:57.054Z,1000.3
2017-01-29T00:59:18.355Z,1000.4
2017-01-29T00:59:39.641Z,1000.4
2017-01-29T01:00:00.956Z,1000.4
2017-01-29T01:00:23.787Z,1000.4
2017-01-29T01:00:48.916Z,1000.3
2017-01-29T01:01:16.908Z,1000.4
2017-01-29T01:01:38.689Z,1000.3
2017-01-29T01:02:00.457Z,1000.4
2017-01-29T01:02:28.819Z,1000.4
2017-01-29T01:02:52.643Z,1000.4
2017-01-29T01:03:13.971Z,1000.4
2017-01-29T01:03:36.699Z,1000.4
2017-01-29T01:04:02.371Z,1000.4
2017-01-29T01:04:24.519Z,1000.4
2017-01-29T01:04:47.684Z,1000.4
2017-01-29T01:05:10.007Z,1000.4
2017-01-29T01:05:34.032Z,1000.4
2017-01-29T01:05:56.237Z,1000.4
2017-01-29T01:06:18.695Z,1000.4
2017-01-29T01:06:42.410Z,1000.4
2017-01-29T01:07:05.158Z,1000.4
2017-01-29T01:07:29.563Z,1000.4
2017-01-29T01:07:51.934Z,1000.4
2017-01-29T01:08:14.332Z,1000.4
2017-01-29T01:08:36.256Z,1000.4
2017-01-29T01:08:57.580Z,1000.5
2017-01-29T01:09:18.874Z,1000.4
2017-01-29T01:09:40.179Z,1000.4
2017-01-29T01:10:01.456Z,1000.4
2017-01-29T01:10:22.749Z,1000.4
2017-01-29T01:10:44.038Z,1000.4
2017-01-29T01:11:05.379Z,1000.4
2017-01-29T01:11:26.668Z,1000.4
2017-01-29T01:11:47.978Z,1000.4
2017-01-29T01:12:09.262Z,1000.4
2017-01-29T01:12:30.561Z,1000.4
2017-01-29T01:12:51.883Z,1000.4
2017-01-29T01:13:13.195Z,1000.4
2017-01-29T01:13:34.475Z,1000.4
2017-01-29T01:13:55.752Z,1000.4
2017-01-29T01:14:17.043Z,1000.4
2017-01-29T01:14:38.352Z,1000.4
2017-01-29T01:14:59.625Z,1000.4
2017-01-29T01:15:20.917Z,1000.4
2017-01-29T01:15:42.269Z,1000.4
2017-01-29T01:16:03.561Z,1000.4
2017-01-29T01:16:24.854Z,1000.4
2017-01-29T01:16:47.123Z,1000.4
2017-01-29T01:17:08.450Z,1000.4
2017-01-29T01:17:29.731Z,1000.5
2017-01-29T01:17:51.033Z,1000.4
2017-01-29T01:18:12.350Z,1000.4
2017-01-29T01:18:33.687Z,1000.4
2017-01-29T01:18:54.976Z,1000.4
2017-01-29T01:19:16.270Z,1000.4
2017-01-29T01:19:37.579Z,1000.4
2017-01-29T01:19:58.877Z,1000.4
2017-01-29T01:20:20.216Z,1000.4
2017-01-29T01:20:41.507Z,1000.4
2017-01-29T01:21:02.815Z,1000.4
2017-01-29T01:21:24.143Z,1000.4
2017-01-29T01:21:45.453Z,1000.4
2017-01-29T01:22:06.760Z,1000.4
2017-01-29T01:22:28.085Z,1000.5
2017-01-29T01:22:49.416Z,1000.5
2017-01-29T01:23:10.721Z,1000.5
2017-01-29T01:23:32.033Z,1000.4
2017-01-29T01:23:53.348Z,1000.5
2017-01-29T01:24:14.658Z,1000.5
2017-01-29T01:24:35.941Z,1000.4
2017-01-29T01:24:57.255Z,1000.5
2017-01-29T01:25:18.549Z,1000.5
2017-01-29T01:25:39.843Z,1000.5
2017-01-29T01:26:01.142Z,1000.5
2017-01-29T01:26:22.447Z,1000.4
2017-01-29T01:26:43.745Z,1000.4
2017-01-29T01:27:05.563Z,1000.4
2017-01-29T01:27:26.854Z,1000.4
2017-01-29T01:27:48.153Z,1000.5
2017-01-29T01:28:09.448Z,1000.4
2017-01-29T01:28:30.748Z,1000.5
2017-01-29T01:28:52.117Z,1000.5
2017-01-29T01:29:13.467Z,1000.4
2017-01-29T01:29:34.759Z,1000.4
2017-01-29T01:29:56.055Z,1000.4
2017-01-29T01:30:17.363Z,1000.4
2017-01-29T01:30:38.643Z,1000.4
2017-01-29T01:30:59.964Z,1000.5
2017-01-29T01:31:21.252Z,1000.4
2017-01-29T01:31:42.550Z,1000.5
2017-01-29T01:32:03.850Z,1000.5
2017-01-29T01:32:25.150Z,1000.5
2017-01-29T01:32:46.437Z,1000.5
2017-01-29T01:33:08.507Z,1000.4
2017-01-29T01:33:29.854Z,1000.5
2017-01-29T01:33:51.170Z,1000.5
2017-01-29T01:34:12.474Z,1000.4
2017-01-29T01:34:33.776Z,1000.4
2017-01-29T01:34:55.143Z,1000.4
2017-01-29T01:35:16.448Z,1000.4
2017-01-29T01:35:37.780Z,1000.4
2017-01-29T01:35:59.090Z,1000.4
2017-01-29T01:36:20.379Z,1000.4
2017-01-29T01:36:41.683Z,1000.4
2017-01-29T01:37:02.969Z,1000.5
2017-01-29T01:37:24.291Z,1000.5
2017-01-29T01:37:45.582Z,1000.5
2017-01-29T01:38:06.861Z,1000.5
2017-01-29T01:38:28.146Z,1000.5
2017-01-29T01:38:49.442Z,1000.5
2017-01-29T01:39:10.761Z,1000.5
2017-01-29T01:39:32.053Z,1000.5
2017-01-29T01:39:53.359Z,1000.4
2017-01-29T01:40:14.656Z,1000.5
2017-01-29T01:40:35.979Z,1000.5
2017-01-29T01:40:57.307Z,1000.5
2017-01-29T01:41:18.612Z,1000.5
2017-01-29T01:41:39.899Z,1000.5
2017-01-29T01:42:01.187Z,1000.5
2017-01-29T01:42:22.478Z,1000.5
2017-01-29T01:42:43.781Z,1000.5
2017-01-29T01:43:05.110Z,1000.5
2017-01-29T01:43:26.396Z,1000.5
2017-01-29T01:43:47.696Z,1000.5
2017-01-29T01:44:09.011Z,1000.5
2017-01-29T01:44:30.335Z,1000.5
2017-01-29T01:44:51.644Z,1000.5
2017-01-29T01:45:12.941Z,1000.5
2017-01-29T01:45:34.212Z,1000.5
2017-01-29T01:45:55.517Z,1000.5
2017-01-29T01:46:16.844Z,1000.5
2017-01-29T01:47:19.933Z,1000.5
2017-01-29T01:47:41.240Z,1000.5
2017-01-29T01:48:02.577Z,1000.5
2017-01-29T01:48:23.869Z,1000.5
2017-01-29T01:48:45.154Z,1000.5
2017-01-29T01:49:06.480Z,1000.5
2017-01-29T01:49:27.785Z,1000.6
2017-01-29T01:49:49.074Z,1000.5
2017-01-29T01:50:10.374Z,1000.5
2017-01-29T01:50:31.657Z,1000.5
2017-01-29T01:50:52.959Z,1000.6
2017-01-29T01:51:14.256Z,1000.5
2017-01-29T01:51:35.532Z,1000.5
2017-01-29T01:51:56.844Z,1000.5
2017-01-29T01:52:18.130Z,1000.5
2017-01-29T01:52:39.446Z,1000.5
2017-01-29T01:53:00.785Z,1000.5
2017-01-29T01:53:22.071Z,1000.5
2017-01-29T01:53:43.387Z,1000.5
2017-01-29T01:54:05.217Z,1000.5
2017-01-29T01:54:26.544Z,1000.5
2017-01-29T01:54:47.861Z,1000.5
2017-01-29T01:55:09.202Z,1000.5
2017-01-29T01:55:30.480Z,1000.5
2017-01-29T01:55:51.786Z,1000.5
2017-01-29T01:56:13.098Z,1000.5
2017-01-29T01:56:34.382Z,1000.5
2017-01-29T01:56:55.690Z,1000.5
2017-01-29T01:57:16.981Z,1000.5
2017-01-29T01:57:38.259Z,1000.5
2017-01-29T01:57:59.552Z,1000.6
2017-01-29T01:58:20.872Z,1000.5
2017-01-29T01:58:42.166Z,1000.5
2017-01-29T01:59:03.489Z,1000.5
2017-01-29T01:59:24.798Z,1000.5
2017-01-29T01:59:46.150Z,1000.5
2017-01-29T02:00:07.441Z,1000.5
2017-01-29T02:00:28.724Z,1000.5
2017-01-29T02:00:50.028Z,1000.5
2017-01-29T02:01:11.346Z,1000.5
2017-01-29T02:01:32.658Z,1000.5
2017-01-29T02:01:54.724Z,1000.5
2017-01-29T02:02:16.010Z,1000.5
2017-01-29T02:02:37.288Z,1000.5
2017-01-29T02:02:58.575Z,1000.5
2017-01-29T02:03:19.897Z,1000.5
2017-01-29T02:03:41.189Z,1000.6
2017-01-29T02:04:02.535Z,1000.5
2017-01-29T02:04:23.832Z,1000.6
2017-01-29T02:04:45.157Z,1000.6
2017-01-29T02:05:06.454Z,1000.5
2017-01-29T02:05:27.752Z,1000.5
2017-01-29T02:05:49.144Z,1000.5
2017-01-29T02:06:10.466Z,1000.5
2017-01-29T02:06:31.805Z,1000.5
2017-01-29T02:06:53.097Z,1000.5
2017-01-29T02:07:33.888Z,1000.5
2017-01-29T02:07:55.170Z,1000.6
2017-01-29T02:08:16.492Z,1000.5
2017-01-29T02:08:37.796Z,1000.5
2017-01-29T02:08:59.098Z,1000.6
2017-01-29T02:09:20.419Z,1000.6
2017-01-29T02:09:41.694Z,1000.6
2017-01-29T02:10:03.034Z,1000.6
2017-01-29T02:10:24.339Z,1000.5
2017-01-29T02:10:45.648Z,1000.5
2017-01-29T02:11:06.950Z,1000.5
2017-01-29T02:11:28.243Z,1000.6
2017-01-29T02:11:49.550Z,1000.6
2017-01-29T02:12:10.841Z,1000.5
2017-01-29T02:12:32.130Z,1000.6
2017-01-29T02:12:53.414Z,1000.6
2017-01-29T02:13:14.718Z,1000.6
2017-01-29T02:13:36.004Z,1000.6
2017-01-29T02:13:57.324Z,1000.6
2017-01-29T02:14:18.620Z,1000.6
2017-01-29T02:14:39.925Z,1000.6
2017-01-29T02:15:01.873Z,1000.6
2017-01-29T02:15:23.169Z,1000.7
2017-01-29T02:15:44.458Z,1000.6
2017-01-29T02:16:05.773Z,1000.6
2017-01-29T02:16:27.088Z,1000.6
2017-01-29T02:16:48.377Z,1000.7
2017-01-29T02:17:09.656Z,1000.6
2017-01-29T02:17:30.958Z,1000.6
2017-01-29T02:17:52.247Z,1000.6
2017-01-29T02:18:13.578Z,1000.6
2017-01-29T02:18:34.851Z,1000.6
2017-01-29T02:18:56.181Z,1000.7
2017-01-29T02:19:17.488Z,1000.6
2017-01-29T02:19:38.800Z,1000.7
2017-01-29T02:20:00.093Z,1000.7
2017-01-29T02:20:21.397Z,1000.6
2017-01-29T02:20:42.701Z,1000.6
2017-01-29T02:21:03.982Z,1000.7
2017-01-29T02:21:25.283Z,1000.7
2017-01-29T02:21:46.571Z,1000.7
2017-01-29T02:22:07.880Z,1000.7
2017-01-29T02:22:29.195Z,1000.7
2017-01-29T02:22:50.516Z,1000.7
2017-01-29T02:23:11.809Z,1000.7
2017-01-29T02:23:33.116Z,1000.7
2017-01-29T02:23:54.428Z,1000.7
2017-01-29T02:24:15.724Z,1000.7
2017-01-29T02:24:37.051Z,1000.7
2017-01-29T02:24:58.374Z,1000.7
2017-01-29T02:25:19.697Z,1000.7
2017-01-29T02:25:40.981Z,1000.7
2017-01-29T02:26:02.282Z,1000.7
2017-01-29T02:26:24.148Z,1000.7
2017-01-29T02:26:45.448Z,1000.7
2017-01-29T02:27:06.735Z,1000.6
2017-01-29T02:27:43.089Z,1000.7
2017-01-29T02:28:04.399Z,1000.6
2017-01-29T02:28:25.692Z,1000.7
2017-01-29T02:28:46.971Z,1000.6
2017-01-29T02:29:08.270Z,1000.7
2017-01-29T02:29:29.563Z,1000.7
2017-01-29T02:31:10.365Z,1000.7
2017-01-29T02:31:31.650Z,1000.7
2017-01-29T02:31:52.968Z,1000.7
2017-01-29T02:32:14.286Z,1000.7
2017-01-29T02:32:35.565Z,1000.7
2017-01-29T02:32:56.859Z,1000.7
2017-01-29T02:33:18.171Z,1000.7
2017-01-29T02:33:39.474Z,1000.7
2017-01-29T02:34:00.785Z,1000.7
2017-01-29T02:34:22.087Z,1000.7
2017-01-29T02:34:43.382Z,1000.7
2017-01-29T02:35:04.684Z,1000.7
2017-01-29T02:35:26.005Z,1000.7
2017-01-29T02:35:47.304Z,1000.7
2017-01-29T02:36:08.667Z,1000.7
2017-01-29T02:36:29.979Z,1000.7
2017-01-29T02:36:51.309Z,1000.7
2017-01-29T02:37:12.581Z,1000.7
2017-01-29T02:37:33.904Z,1000.7
2017-01-29T02:37:55.189Z,1000.7
2017-01-29T02:38:16.504Z,1000.7
2017-01-29T02:38:37.806Z,1000.7
2017-01-29T02:38:59.112Z,1000.7
2017-01-29T02:39:20.418Z,1000.6
2017-01-29T02:39:41.700Z,1000.7
2017-01-29T02:40:03.003Z,1000.7
2017-01-29T02:40:24.294Z,1000.7
2017-01-29T02:40:45.606Z,1000.7
2017-01-29T02:41:06.891Z,1000.7
2017-01-29T02:41:28.180Z,1000.7
2017-01-29T02:41:49.497Z,1000.6
2017-01-29T02:42:10.835Z,1000.7
2017-01-29T02:42:32.126Z,1000.7
2017-01-29T02:42:53.434Z,1000.7
2017-01-29T02:43:14.755Z,1000.7
2017-01-29T02:43:38.648Z,1000.7
2017-01-29T02:43:59.933Z,1000.7
2017-01-29T02:44:21.219Z,1000.7
2017-01-29T02:44:42.503Z,1000.7
2017-01-29T02:45:03.800Z,1000.7
2017-01-29T02:45:25.820Z,1000.7
2017-01-29T02:45:47.112Z,1000.7
2017-01-29T02:46:08.401Z,1000.7
2017-01-29T02:46:29.734Z,1000.7
2017-01-29T02:46:51.042Z,1000.7
2017-01-29T02:47:12.359Z,1000.6
2017-01-29T02:47:33.666Z,1000.7
2017-01-29T02:47:55.290Z,1000.6
2017-01-29T02:48:16.590Z,1000.6
2017-01-29T02:48:37.907Z,1000.7
2017-01-29T02:48:59.196Z,1000.7
2017-01-29T02:49:20.481Z,1000.7
2017-01-29T02:49:41.774Z,1000.7
2017-01-29T02:50:03.100Z,1000.7
2017-01-29T02:50:24.398Z,1000.7
2017-01-29T02:50:45.702Z,1000.7
2017-01-29T02:51:06.996Z,1000.8
2017-01-29T02:51:28.276Z,1000.8
2017-01-29T02:51:49.577Z,1000.7
2017-01-29T02:52:10.868Z,1000.8
2017-01-29T02:52:32.139Z,1000.8
2017-01-29T02:52:53.454Z,1000.8
2017-01-29T02:53:14.749Z,1000.8
2017-01-29T02:53:36.033Z,1000.8
2017-01-29T02:53:57.335Z,1000.8
2017-01-29T02:54:18.639Z,1000.8
2017-01-29T02:54:39.931Z,1000.8
2017-01-29T02:55:01.232Z,1000.8
2017-01-29T02:55:22.524Z,1000.7
2017-01-29T02:55:43.818Z,1000.7
2017-01-29T02:56:05.134Z,1000.8
2017-01-29T02:56:26.428Z,1000.7
2017-01-29T02:56:47.721Z,1000.7
2017-01-29T02:57:09.033Z,1000.7
2017-01-29T02:57:30.359Z,1000.7
2017-01-29T02:57:51.656Z,1000.7
2017-01-29T02:58:12.949Z,1000.7
2017-01-29T02:58:34.258Z,1000.8
2017-01-29T02:58:55.560Z,1000.8
2017-01-29T02:59:16.921Z,1000.8
2017-01-29T02:59:38.242Z,1000.8
2017-01-29T02:59:59.560Z,1000.8
2017-01-29T03:00:20.853Z,1000.8
2017-01-29T03:00:42.167Z,1000.8
2017-01-29T03:01:03.468Z,1000.7
2017-01-29T03:01:24.776Z,1000.8
2017-01-29T03:01:46.110Z,1000.7
2017-01-29T03:02:07.419Z,1000.8
2017-01-29T03:02:28.752Z,1000.7
2017-01-29T03:02:50.067Z,1000.8
2017-01-29T03:03:11.355Z,1000.7
2017-01-29T03:03:32.650Z,1000.8
2017-01-29T03:03:53.982Z,1000.7
2017-01-29T03:04:15.287Z,1000.7
2017-01-29T03:04:36.573Z,1000.8
2017-01-29T03:04:57.894Z,1000.7
2017-01-29T03:05:19.196Z,1000.7
2017-01-29T03:05:40.481Z,1000.7
2017-01-29T03:06:01.781Z,1000.7
2017-01-29T03:06:23.083Z,1000.7
2017-01-29T03:06:44.411Z,1000.7
2017-01-29T03:07:05.732Z,1000.7
2017-01-29T03:07:27.046Z,1000.7
2017-01-29T03:07:48.346Z,1000.7
2017-01-29T03:08:09.649Z,1000.7
2017-01-29T03:08:30.932Z,1000.8
2017-01-29T03:08:52.248Z,1000.8
2017-01-29T03:09:13.555Z,1000.8
2017-01-29T03:09:34.864Z,1000.8
2017-01-29T03:09:56.172Z,1000.8
2017-01-29T03:10:17.498Z,1000.8
2017-01-29T03:10:38.788Z,1000.8
2017-01-29T03:11:00.098Z,1000.8
2017-01-29T03:11:21.394Z,1000.8
2017-01-29T03:11:42.685Z,1000.8
2017-01-29T03:12:04.017Z,1000.8
2017-01-29T03:12:25.293Z,1000.8
2017-01-29T03:12:46.590Z,1000.8
2017-01-29T03:13:07.872Z,1000.8
2017-01-29T03:13:29.175Z,1000.8
2017-01-29T03:13:50.496Z,1000.9
2017-01-29T03:14:11.812Z,1000.8
2017-01-29T03:14:33.095Z,1000.9
2017-01-29T03:14:54.446Z,1000.9
2017-01-29T03:15:15.733Z,1000.8
2017-01-29T03:15:37.018Z,1000.8
2017-01-29T03:15:58.323Z,1000.8
2017-01-29T03:16:19.679Z,1000.8
2017-01-29T03:16:40.975Z,1000.8
2017-01-29T03:17:02.260Z,1000.8
2017-01-29T03:17:23.546Z,1000.8
2017-01-29T03:17:44.850Z,1000.8
2017-01-29T03:18:06.170Z,1000.8
2017-01-29T03:18:27.455Z,1000.8
2017-01-29T03:18:48.756Z,1000.8
2017-01-29T03:19:10.049Z,1000.8
2017-01-29T03:19:31.392Z,1000.8
2017-01-29T03:19:52.716Z,1000.8
2017-01-29T03:20:14.019Z,1000.8
2017-01-29T03:20:35.329Z,1000.9
2017-01-29T03:20:56.613Z,1000.9
2017-01-29T03:21:17.897Z,1000.9
2017-01-29T03:21:39.205Z,1000.9
2017-01-29T03:22:00.492Z,1000.9
2017-01-29T03:22:21.794Z,1000.9
2017-01-29T03:22:43.127Z,1000.9
2017-01-29T03:23:04.420Z,1000.9
2017-01-29T03:23:25.726Z,1000.9
2017-01-29T03:23:47.021Z,1000.9
2017-01-29T03:24:08.326Z,1000.9
2017-01-29T03:24:29.620Z,1000.9
2017-01-29T03:24:50.913Z,1000.9
2017-01-29T03:25:12.230Z,1000.9
2017-01-29T03:25:33.522Z,1000.9
2017-01-29T03:25:54.820Z,1000.9
2017-01-29T03:26:16.108Z,1000.9
2017-01-29T03:26:37.427Z,1000.9
2017-01-29T03:26:58.759Z,1000.9
2017-01-29T03:27:20.062Z,1000.9
2017-01-29T03:27:41.363Z,1000.9
2017-01-29T03:28:02.655Z,1000.9
2017-01-29T03:28:23.951Z,1001
2017-01-29T03:28:45.265Z,1000.9
2017-01-29T03:29:06.571Z,1000.9
2017-01-29T03:29:27.927Z,1000.9
2017-01-29T03:29:49.231Z,1000.9
2017-01-29T03:30:10.510Z,1000.9
2017-01-29T03:30:31.813Z,1000.9
2017-01-29T03:30:53.100Z,1001
2017-01-29T03:31:14.413Z,1000.9
2017-01-29T03:31:35.705Z,1001
2017-01-29T03:31:57.035Z,1000.9
2017-01-29T03:32:18.321Z,1000.9
2017-01-29T03:32:39.630Z,1001
2017-01-29T03:33:00.917Z,1000.9
2017-01-29T03:33:22.193Z,1000.9
2017-01-29T03:33:43.497Z,1000.9
2017-01-29T03:34:04.791Z,1000.9
2017-01-29T03:34:26.072Z,1000.9
2017-01-29T03:34:47.357Z,1001
2017-01-29T03:35:08.633Z,1000.9
2017-01-29T03:35:29.923Z,1000.9
2017-01-29T03:35:51.228Z,1000.9
2017-01-29T03:36:12.519Z,1000.9
2017-01-29T03:36:33.832Z,1000.9
2017-01-29T03:36:55.737Z,1000.9
2017-01-29T03:37:17.039Z,1000.9
2017-01-29T03:37:38.330Z,1000.9
2017-01-29T03:37:59.623Z,1000.9
2017-01-29T03:38:20.933Z,1000.9
2017-01-29T03:38:42.254Z,1000.9
2017-01-29T03:39:03.554Z,1000.9
2017-01-29T03:39:24.849Z,1000.9
2017-01-29T03:39:46.164Z,1000.9
2017-01-29T03:40:07.450Z,1000.9
2017-01-29T03:40:28.752Z,1001
2017-01-29T03:40:50.064Z,1000.9
2017-01-29T03:41:11.365Z,1000.9
2017-01-29T03:41:32.673Z,1000.9
2017-01-29T03:41:53.970Z,1000.9
2017-01-29T03:42:15.296Z,1000.9
2017-01-29T03:42:36.577Z,1000.9
2017-01-29T03:42:57.876Z,1000.9
2017-01-29T03:43:19.174Z,1000.9
2017-01-29T03:43:40.450Z,1000.9
2017-01-29T03:44:01.743Z,1000.9
2017-01-29T03:44:23.039Z,1000.9
2017-01-29T03:44:44.372Z,1000.9
2017-01-29T03:45:05.676Z,1001
2017-01-29T03:45:26.957Z,1001
2017-01-29T03:45:48.289Z,1001
2017-01-29T03:46:09.579Z,1001
2017-01-29T03:46:30.889Z,1001
2017-01-29T03:46:52.177Z,1001
2017-01-29T03:47:13.483Z,1001
2017-01-29T03:47:34.783Z,1001
2017-01-29T03:47:56.087Z,1001
2017-01-29T03:48:17.389Z,1001
2017-01-29T03:48:39.231Z,1001
2017-01-29T03:49:00.528Z,1001
2017-01-29T03:49:21.833Z,1001
2017-01-29T03:49:43.128Z,1001
2017-01-29T03:50:04.483Z,1000.9
2017-01-29T03:50:25.794Z,1000.9
2017-01-29T03:50:47.095Z,1000.9
2017-01-29T03:51:08.401Z,1000.9
2017-01-29T03:51:29.702Z,1001
2017-01-29T03:51:51.052Z,1001
2017-01-29T03:52:12.340Z,1001
2017-01-29T03:52:33.629Z,1001
2017-01-29T03:52:54.932Z,1001
2017-01-29T03:53:16.244Z,1001
2017-01-29T03:53:37.547Z,1001
2017-01-29T03:53:58.839Z,1001
2017-01-29T03:54:20.155Z,1001
2017-01-29T03:54:41.453Z,1001.1
2017-01-29T03:55:02.747Z,1001
2017-01-29T03:55:24.068Z,1001.1
2017-01-29T03:55:45.363Z,1001
2017-01-29T03:56:06.660Z,1001.1
2017-01-29T03:56:27.951Z,1001.1
2017-01-29T03:56:49.249Z,1001.1
2017-01-29T03:57:10.557Z,1001.1
2017-01-29T03:57:31.854Z,1001.1
2017-01-29T03:57:53.148Z,1001
2017-01-29T03:58:14.471Z,1001.1
2017-01-29T03:58:35.773Z,1001.1
2017-01-29T03:58:57.074Z,1001
2017-01-29T03:59:18.353Z,1001.1
2017-01-29T03:59:39.652Z,1001.1
2017-01-29T04:00:00.983Z,1001.1
2017-01-29T04:00:22.324Z,1001
2017-01-29T04:00:43.657Z,1001
2017-01-29T04:01:04.945Z,1001.1
2017-01-29T04:01:26.230Z,1001
2017-01-29T04:01:47.641Z,1001
2017-01-29T04:02:08.975Z,1001.1
2017-01-29T04:02:30.325Z,1001
2017-01-29T04:02:51.616Z,1001
2017-01-29T04:03:12.926Z,1001
2017-01-29T04:03:34.200Z,1001
2017-01-29T04:03:55.488Z,1001
2017-01-29T04:04:16.804Z,1001
2017-01-29T04:04:38.143Z,1001
2017-01-29T04:04:59.443Z,1001
2017-01-29T04:05:20.757Z,1001
2017-01-29T04:05:42.038Z,1001
2017-01-29T04:06:03.353Z,1001
2017-01-29T04:06:24.665Z,1001
2017-01-29T04:06:45.997Z,1001
2017-01-29T04:07:07.311Z,1001
2017-01-29T04:07:28.697Z,1001.1
2017-01-29T04:07:49.985Z,1001
2017-01-29T04:08:11.279Z,1001
2017-01-29T04:08:32.601Z,1001.1
2017-01-29T04:08:53.888Z,1001
2017-01-29T04:09:15.182Z,1001
2017-01-29T04:09:36.503Z,1001
2017-01-29T04:09:57.802Z,1001
2017-01-29T04:10:19.092Z,1001
2017-01-29T04:10:40.383Z,1001
2017-01-29T04:11:01.714Z,1001
2017-01-29T04:11:23.022Z,1001
2017-01-29T04:11:44.328Z,1001
2017-01-29T04:12:05.631Z,1001
2017-01-29T04:12:26.922Z,1001
2017-01-29T04:12:48.209Z,1001
2017-01-29T04:13:09.502Z,1001.1
2017-01-29T04:13:30.796Z,1001
2017-01-29T04:13:52.101Z,1001
2017-01-29T04:14:14.166Z,1001
2017-01-29T04:14:35.456Z,1001.1
2017-01-29T04:14:56.782Z,1001
2017-01-29T04:15:18.079Z,1001
2017-01-29T04:15:39.363Z,1001
2017-01-29T04:16:00.656Z,1001
2017-01-29T04:16:21.940Z,1001.1
2017-01-29T04:16:43.237Z,1001
2017-01-29T04:17:04.523Z,1001
2017-01-29T04:17:25.805Z,1001
2017-01-29T04:17:47.099Z,1001
2017-01-29T04:18:08.409Z,1001
2017-01-29T04:18:29.754Z,1001.1
2017-01-29T04:18:51.113Z,1001.1
2017-01-29T04:19:12.441Z,1001.1
2017-01-29T04:19:33.804Z,1001
2017-01-29T04:19:55.087Z,1001.1
2017-01-29T04:20:16.379Z,1001.1
2017-01-29T04:20:37.693Z,1001
2017-01-29T04:20:59.005Z,1001.1
2017-01-29T04:21:20.302Z,1001.1
2017-01-29T04:21:41.605Z,1001.1
2017-01-29T04:22:02.914Z,1001.1
2017-01-29T04:22:24.899Z,1001.1
2017-01-29T04:22:46.178Z,1001.1
2017-01-29T04:23:07.467Z,1001.1
2017-01-29T04:23:28.787Z,1001.1
2017-01-29T04:23:50.069Z,1001.1
2017-01-29T04:24:11.382Z,1001.1
2017-01-29T04:24:32.686Z,1001.1
2017-01-29T04:24:53.968Z,1001.1
2017-01-29T04:25:15.280Z,1001.1
2017-01-29T04:25:36.602Z,1001.1
2017-01-29T04:25:57.915Z,1001.1
2017-01-29T04:26:19.246Z,1001.1
2017-01-29T04:26:40.545Z,1001.1
2017-01-29T04:27:01.851Z,1001.2
2017-01-29T04:27:23.156Z,1001.1
2017-01-29T04:27:51.174Z,1001.1
2017-01-29T04:28:12.468Z,1001.1
2017-01-29T04:28:33.838Z,1001.1
2017-01-29T04:28:55.129Z,1001.1
2017-01-29T04:29:16.502Z,1001.1
2017-01-29T04:29:37.796Z,1001.1
2017-01-29T04:29:59.746Z,1001.1
2017-01-29T04:30:21.050Z,1001.1
2017-01-29T04:30:42.341Z,1001.1
2017-01-29T04:31:03.643Z,1001.1
2017-01-29T04:31:24.948Z,1001.2
2017-01-29T04:31:46.247Z,1001.2
2017-01-29T04:32:07.622Z,1001.1
2017-01-29T04:32:28.938Z,1001.1
2017-01-29T04:32:50.237Z,1001.1
2017-01-29T04:33:11.531Z,1001.1
2017-01-29T04:33:32.869Z,1001.2
2017-01-29T04:33:54.172Z,1001.1
2017-01-29T04:34:15.478Z,1001.1
2017-01-29T04:34:36.775Z,1001.1